map of OLM home
OLM - Airport
Location
City:  Olympia, Washington, United States
Name:Olympia Regional
ICAO:KOLM
IATA:OLM
FAA LID:OLM

Details
Type:Airport (Airfield)
Use:Public/Civil, International (customs landing rights)
Latitude:4658'10"N (46.969404)
Longitude:12254'09"W (-122.902544)
Datum:WGS 1984
Elevation:207 ft (63 m)
Variation:15.65E (WMM2015 magnetic declination)
-0.14 annual change
Runways:2
Longest:5500 × 150 ft (1676 × 45.5 m), paved

Time
Time Zone:UTC-8 (DST-7)
Local Time:

Weather
METAR:KOLM 250154Z 23007KT 10SM FEW055 SCT110 06/M01 A3017 RMK AO2 SLP216 T00561011
TAF:KOLM 242333Z 2500/2524 28009KT P6SM SCT040 SCT200
FM250900 20015G22KT P6SM -RA OVC020

Related Locations
Nearby:
Farthest:FTU: 10819 mi / 17412 km
Tolagnaro [Maurillac Airport (Fort Dauphin Airport)], MG

Find:

   beyond  
but within

Other Information
Maps:
NOTAMs:
Links:
Sources:

  
flag of United States
flag of Washington
  

Airport Diagram

Airport diagram for OLM

Airport diagram PDF

Sectional Chart

Flight Planning
at skyvector.com

Satellite Image

Google Maps Satellite view

 

Copyright © 2004-2018 Karl L. Swartz. All rights reserved.
The Great Circle Mapper name and logo are trademarks of the Great Circle Mapper.
All other trademarks mentioned herein belong to their respective owners.
Please see credits for attibutions and further copyright information.

  Follow gcmap on Facebook Follow gcmap on Twitter Follow gcmap on Google+ GCmap on LinkedIn

hCard Microformat

Geo Microformat